createdAt,value
2023-02-23T06:53:55.951Z,68.45
2023-02-23T06:59:28.569Z,68.10
2023-02-23T07:04:30.469Z,68.05
2023-02-23T07:09:32.490Z,67.80
2023-02-23T07:14:48.249Z,67.81
2023-02-23T07:19:50.148Z,68.11
2023-02-23T07:24:52.936Z,67.91
2023-02-23T07:29:54.709Z,68.01
2023-02-23T07:34:56.446Z,67.83
2023-02-23T07:40:04.682Z,67.82
2023-02-23T07:45:07.194Z,67.57
2023-02-23T07:50:10.400Z,67.48
2023-02-23T07:55:13.040Z,67.67
2023-02-23T08:00:15.066Z,67.69
2023-02-23T08:05:17.007Z,67.56
2023-02-23T08:10:18.848Z,67.52
2023-02-23T08:15:20.598Z,67.16
2023-02-23T08:20:22.273Z,67.16
2023-02-23T08:25:24.299Z,66.71
2023-02-23T08:30:26.086Z,66.71
2023-02-23T08:35:29.982Z,66.78
2023-02-23T08:40:31.661Z,66.68
2023-02-23T08:45:33.400Z,66.86
2023-02-23T08:50:35.174Z,67.14
2023-02-23T08:55:38.566Z,66.82
2023-02-23T09:00:40.467Z,66.62
2023-02-23T09:05:43.451Z,66.80
2023-02-23T09:10:45.250Z,66.46
2023-02-23T09:15:48.019Z,66.53
2023-02-23T09:20:50.352Z,66.33
2023-02-23T09:25:52.050Z,66.08
2023-02-23T09:30:53.717Z,66.48
2023-02-23T09:35:55.465Z,67.23
2023-02-23T09:40:57.169Z,67.11
2023-02-23T09:46:23.791Z,67.48
2023-02-23T09:51:27.357Z,67.31
2023-02-23T09:56:45.369Z,67.06
2023-02-23T10:01:50.142Z,66.88
2023-02-23T10:07:14.773Z,66.71
2023-02-23T10:12:44.471Z,66.71
2023-02-23T10:18:04.159Z,66.52
2023-02-23T10:23:15.583Z,66.71
2023-02-23T10:28:21.875Z,66.16
2023-02-23T10:33:30.013Z,65.05
2023-02-23T10:38:31.762Z,65.02
2023-02-23T10:43:33.766Z,63.94
2023-02-23T10:48:43.237Z,63.16
2023-02-23T10:53:45.068Z,63.20
2023-02-23T10:58:58.606Z,63.43
2023-02-23T11:04:19.159Z,62.72
2023-02-23T11:09:45.081Z,63.21
2023-02-23T11:14:53.717Z,63.37
2023-02-23T11:20:25.790Z,63.12
2023-02-23T11:25:32.467Z,64.09
2023-02-23T11:30:38.193Z,64.20
2023-02-23T11:35:40.003Z,64.30
2023-02-23T11:40:41.686Z,64.32
2023-02-23T11:45:50.352Z,63.86
2023-02-23T11:50:53.584Z,63.95
2023-02-23T11:55:59.278Z,64.31
2023-02-23T12:01:12.122Z,64.75
2023-02-23T12:06:35.879Z,64.53
2023-02-23T12:11:42.577Z,64.24
2023-02-23T12:16:51.159Z,63.67
2023-02-23T12:22:27.036Z,63.39
2023-02-23T12:27:38.298Z,62.97
2023-02-23T12:33:06.946Z,62.09
2023-02-23T12:38:33.575Z,61.41
2023-02-23T12:43:49.502Z,61.17
2023-02-23T12:49:03.295Z,61.43
2023-02-23T12:54:11.613Z,61.42
2023-02-23T12:59:19.382Z,60.95
2023-02-23T13:05:04.195Z,60.07
2023-02-23T13:10:32.061Z,59.85
2023-02-23T13:16:05.030Z,58.63
2023-02-23T13:21:31.760Z,57.93
2023-02-23T13:26:46.386Z,57.96
2023-02-23T13:31:48.517Z,57.61
2023-02-23T13:36:51.456Z,56.74
2023-02-23T13:42:22.020Z,55.79
2023-02-23T13:47:47.199Z,56.29
2023-02-23T13:52:49.736Z,56.28
2023-02-23T13:57:52.943Z,56.24
2023-02-23T14:02:54.814Z,56.06
2023-02-23T14:08:04.826Z,56.12
2023-02-23T14:13:25.734Z,55.68
2023-02-23T14:18:31.125Z,56.06
2023-02-23T14:23:54.093Z,55.23
2023-02-23T14:29:28.935Z,54.80
2023-02-23T14:34:49.206Z,55.38
2023-02-23T14:39:55.159Z,56.50
2023-02-23T14:45:27.341Z,56.45
2023-02-23T14:50:35.397Z,56.91
2023-02-23T14:55:43.446Z,57.49
2023-02-23T15:00:45.194Z,57.92
2023-02-23T15:06:07.089Z,57.75
2023-02-23T15:11:14.530Z,58.34
2023-02-23T15:16:24.328Z,58.09
2023-02-23T15:21:26.222Z,58.33
2023-02-23T15:26:37.431Z,58.40
2023-02-23T15:31:41.278Z,59.24
2023-02-23T15:36:47.177Z,59.18
2023-02-23T15:41:49.986Z,58.85
2023-02-23T15:46:55.910Z,59.22
2023-02-23T15:52:01.572Z,59.16
2023-02-23T15:57:14.270Z,59.63
2023-02-23T16:02:23.884Z,59.72
2023-02-23T16:07:35.576Z,60.03
2023-02-23T16:12:39.497Z,60.21
2023-02-23T16:17:47.361Z,60.27
2023-02-23T16:22:53.669Z,60.29
2023-02-23T16:28:02.935Z,60.34
2023-02-23T16:33:21.864Z,60.73
2023-02-23T16:38:39.367Z,60.74
2023-02-23T16:43:41.139Z,60.86
2023-02-23T16:48:42.811Z,60.84
2023-02-23T16:53:44.997Z,60.80
2023-02-23T16:58:51.083Z,60.80
2023-02-23T17:03:54.641Z,60.91
2023-02-23T17:09:00.707Z,61.00
2023-02-23T17:14:02.468Z,61.03
2023-02-23T17:19:07.285Z,61.26
2023-02-23T17:24:10.986Z,61.41
2023-02-23T17:29:14.715Z,61.71
2023-02-23T17:34:16.746Z,61.65
2023-02-23T17:39:18.803Z,61.94
2023-02-23T17:44:20.668Z,61.98
2023-02-23T17:49:22.380Z,61.87
2023-02-23T17:54:24.082Z,62.04
2023-02-23T17:59:26.191Z,61.93
2023-02-23T18:04:28.369Z,62.14
2023-02-23T18:09:30.502Z,61.75
2023-02-23T18:14:33.173Z,62.00
2023-02-23T18:19:36.166Z,62.08
2023-02-23T18:24:38.627Z,61.72
2023-02-23T18:29:40.339Z,61.98
2023-02-23T18:34:42.044Z,61.80
2023-02-23T18:39:43.698Z,61.99
2023-02-23T18:44:45.554Z,61.97
2023-02-23T18:49:47.728Z,61.92
2023-02-23T18:54:49.456Z,61.86
2023-02-23T18:59:51.233Z,61.46
2023-02-23T19:04:53.052Z,61.59
2023-02-23T19:09:54.895Z,61.50
2023-02-23T19:14:57.854Z,62.26
2023-02-23T19:20:00.711Z,62.16
2023-02-23T19:25:02.561Z,62.36
2023-02-23T19:30:10.250Z,62.18
2023-02-23T19:35:16.231Z,62.63
2023-02-23T19:40:23.155Z,62.72
2023-02-23T19:45:26.084Z,62.50
2023-02-23T19:50:28.025Z,62.47
2023-02-23T19:55:29.752Z,61.95
2023-02-23T20:00:31.491Z,62.05
2023-02-23T20:05:42.892Z,62.08
2023-02-23T20:10:45.396Z,62.44
2023-02-23T20:15:47.148Z,62.19
2023-02-23T20:27:14.571Z,62.59
2023-02-23T20:32:17.450Z,62.18
2023-02-23T20:37:19.777Z,61.93
2023-02-23T20:42:21.478Z,62.00
2023-02-23T20:47:24.034Z,61.97
2023-02-23T20:52:25.756Z,61.86
2023-02-23T20:57:27.412Z,61.85
2023-02-23T21:02:29.684Z,61.92
2023-02-23T21:07:31.679Z,62.19
2023-02-23T21:12:34.232Z,61.91
2023-02-23T21:17:38.608Z,62.17
2023-02-23T21:22:40.932Z,61.99
2023-02-23T21:27:45.037Z,62.14
2023-02-23T21:32:48.481Z,61.74
2023-02-23T21:37:51.274Z,62.38
2023-02-23T21:42:53.049Z,62.48
2023-02-23T21:47:55.079Z,62.44
2023-02-23T21:52:58.314Z,62.35
2023-02-23T21:58:00.087Z,62.36
2023-02-23T22:03:03.530Z,62.29
2023-02-23T22:08:05.926Z,62.53
2023-02-23T22:13:08.414Z,62.60
2023-02-23T22:18:14.982Z,62.21
2023-02-23T22:23:17.184Z,62.32
2023-02-23T22:28:19.058Z,62.26
2023-02-23T22:33:23.199Z,62.23
2023-02-23T22:38:25.430Z,62.23
2023-02-23T22:43:28.149Z,62.44
2023-02-23T22:48:29.926Z,62.28
2023-02-23T22:53:31.658Z,62.14
2023-02-23T22:58:33.392Z,62.52
2023-02-23T23:03:38.279Z,62.30
2023-02-23T23:08:41.856Z,62.33
2023-02-23T23:13:46.604Z,62.37
2023-02-23T23:18:56.582Z,62.11
2023-02-23T23:24:01.026Z,62.29
2023-02-23T23:29:07.546Z,62.23
2023-02-23T23:34:10.826Z,62.37
2023-02-23T23:39:13.302Z,62.38
2023-02-23T23:44:20.824Z,62.42
2023-02-23T23:49:25.687Z,62.28
2023-02-23T23:54:32.710Z,62.27
2023-02-23T23:59:35.438Z,62.18
